createdAt,value
2022-12-06T00:00:00.000Z,4.61
2022-12-06T00:15:00.000Z,5.18
2022-12-06T00:30:00.000Z,7.11
2022-12-06T00:45:00.000Z,8.02
2022-12-06T01:00:00.000Z,8.53
2022-12-06T01:15:00.000Z,8.11
2022-12-06T01:30:00.000Z,7.66
2022-12-06T01:45:00.000Z,7.24
2022-12-06T02:00:00.000Z,7.38
2022-12-06T02:15:00.000Z,7.39
2022-12-06T02:30:00.000Z,8.12
2022-12-06T02:45:00.000Z,8.75
2022-12-06T03:00:00.000Z,8.89
2022-12-06T03:15:00.000Z,8.5
2022-12-06T03:30:00.000Z,7.95
2022-12-06T03:45:00.000Z,8.55
2022-12-06T04:00:00.000Z,8.86
2022-12-06T04:15:00.000Z,8.76
2022-12-06T04:30:00.000Z,8.78
2022-12-06T04:45:00.000Z,8.12
2022-12-06T05:00:00.000Z,8.66
2022-12-06T05:15:00.000Z,7.89
2022-12-06T05:30:00.000Z,7.36
2022-12-06T05:45:00.000Z,8.52
2022-12-06T06:00:00.000Z,10.91
2022-12-06T06:15:00.000Z,12.57
2022-12-06T06:30:00.000Z,13.19
2022-12-06T06:45:00.000Z,12.8
2022-12-06T07:00:00.000Z,13.09
2022-12-06T07:15:00.000Z,13.11
2022-12-06T07:30:00.000Z,12.45
2022-12-06T07:45:00.000Z,13.04
2022-12-06T08:00:00.000Z,12.53
2022-12-06T08:15:00.000Z,13.29
2022-12-06T08:30:00.000Z,11.8
2022-12-06T08:45:00.000Z,10.35
2022-12-06T09:00:00.000Z,9.22
2022-12-06T09:15:00.000Z,7.75
2022-12-06T09:30:00.000Z,6.44
2022-12-06T09:45:00.000Z,5.25
2022-12-06T10:00:00.000Z,5.49
2022-12-06T10:15:00.000Z,5.35
2022-12-06T10:30:00.000Z,5.04
2022-12-06T10:45:00.000Z,4.69
2022-12-06T11:00:00.000Z,5.88
2022-12-06T11:15:00.000Z,5.64
2022-12-06T11:30:00.000Z,7.39
2022-12-06T11:45:00.000Z,6.53
2022-12-06T12:00:00.000Z,6.06
2022-12-06T12:15:00.000Z,5.36
2022-12-06T12:30:00.000Z,5.94
2022-12-06T12:45:00.000Z,5.82
2022-12-06T13:00:00.000Z,6.09
2022-12-06T13:15:00.000Z,5.86
2022-12-06T13:30:00.000Z,6.24
2022-12-06T13:45:00.000Z,5.78
2022-12-06T14:00:00.000Z,5.54
2022-12-06T14:15:00.000Z,5.49
2022-12-06T14:30:00.000Z,5.82
2022-12-06T14:45:00.000Z,5.32
2022-12-06T15:00:00.000Z,5.06
2022-12-06T15:15:00.000Z,5.93
2022-12-06T15:30:00.000Z,6.46
2022-12-06T15:45:00.000Z,6.28
2022-12-06T16:00:00.000Z,6.07
2022-12-06T16:15:00.000Z,5.55
2022-12-06T16:30:00.000Z,6
2022-12-06T16:30:00.000Z,6
2022-12-06T16:30:00.000Z,6
2022-12-06T16:30:00.000Z,6
2022-12-06T18:30:00.000Z,11.55
2022-12-06T18:45:00.000Z,12.64
2022-12-06T19:00:00.000Z,15.98
2022-12-06T19:15:00.000Z,17.12
2022-12-06T19:30:00.000Z,14.75
2022-12-06T19:45:00.000Z,14.41
2022-12-06T20:00:00.000Z,14.47
2022-12-06T20:15:00.000Z,15.31
2022-12-06T20:30:00.000Z,23.73
2022-12-06T20:45:00.000Z,23.68
2022-12-06T21:00:00.000Z,21.27
2022-12-06T21:15:00.000Z,18.02
2022-12-06T21:30:00.000Z,18.15
2022-12-06T21:45:00.000Z,14.74
2022-12-06T22:00:00.000Z,15.51
2022-12-06T22:15:00.000Z,14.39
2022-12-06T22:30:00.000Z,16.61
2022-12-06T22:45:00.000Z,16.6
2022-12-06T23:00:00.000Z,16.01
2022-12-06T23:15:00.000Z,16.05
2022-12-06T23:30:00.000Z,14.22
2022-12-06T23:45:00.000Z,14.89
